• Join FlightAware (Why Join?)
  • Login
  • US Flag 
05:40AM EST


 

Airport Tracker/Info


-or-


 

Live Flight TrackerFlight Track Log ✈ UCA597 ✈ 10-Mar-2014 ✈ KIAD - KBGM

Flight Track Log - Related Links

Times and Time Zones

All times are in EDT time to prevent confusion due to time zone crossing. See the UCA597 flight status page for this flight to view local times or setup timezone preferences in your user account.

Time Position Orientation Groundspeed Altitude Reporting Facility
EDT Latitude Longitude Course Direction KTS MPH feet Rate Location/Type
05:39PM 38.9833 -77.5333 North 167 192 2,800  Level Potomac TRACON
05:40PM 39.0167 -77.5500 339° North 164 189 4,900 1,920 Climbing Potomac TRACON
05:41PM 39.0667 -77.5333 15° North 164 189 6,700 1,740 Climbing Potomac TRACON
05:42PM 39.1000 -77.5167 21° North 155 178 8,500 1,740 Climbing Potomac TRACON
05:43PM 39.1500 -77.5167 360° North 150 173 10,200 1,320 Climbing Potomac TRACON
05:45PM 39.2423 -77.4500 North  Level FlightAware Approximate
05:46PM 39.2567 -77.5000 North 164 189 13,100  Level Washington Center
05:47PM 39.3089 -77.4961 North 169 194 14,300 1,320 Climbing Washington Center
05:48PM 39.3592 -77.4894 North 174 200 15,700 960 Climbing Washington Center
05:50PM 39.4558 -77.4747 North 189 217 17,200 1,020 Climbing New York Center
05:51PM 39.5081 -77.4744 360° North 189 217 18,800 900 Climbing New York Center
05:52PM 39.5606 -77.4686 North 189 217 19,000 60 Climbing New York Center
05:53PM 39.6239 -77.4558 North 200 230 19,000  Level New York Center
05:54PM 39.6781 -77.4528 North 207 238 19,000  Level New York Center
05:55PM 39.7428 -77.4536 359° North 212 244 19,000  Level New York Center
05:56PM 39.7950 -77.4531 360° North 212 244 19,000  Level New York Center
05:57PM 39.8597 -77.4511 North 218 251 19,000  Level New York Center
05:58PM 39.9161 -77.4511 360° North 218 251 19,000  Level New York Center
05:59PM 39.9828 -77.4494 North 218 251 19,000  Level New York Center
06:00PM 40.0392 -77.4494 360° North 218 251 19,000  Level New York Center
06:01PM 40.1081 -77.4478 North 218 251 19,000  Level New York Center
06:02PM 40.1644 -77.4478 360° North 218 251 19,000  Level New York Center
06:03PM 40.2311 -77.4461 North 218 251 19,000  Level New York Center
06:04PM 40.2894 -77.4461 360° North 218 251 19,000  Level New York Center
06:05PM 40.3583 -77.4447 North 218 251 19,000  Level New York Center
06:06PM 40.4189 -77.4450 360° North 225 259 19,000 -360 Level New York Center
06:07PM 40.4892 -77.4164 17° North 236 272 18,300 -900 Descending New York Center
06:08PM 40.5503 -77.3675 31° Northeast 269 310 17,200 -660 Descending New York Center
06:09PM 40.6264 -77.3119 29° Northeast 285 328 17,000 -120 Descending New York Center
06:10PM 40.6917 -77.2633 29° Northeast 285 328 17,000  Level New York Center
06:11PM 40.7547 -77.2147 30° Northeast 273 314 17,000  Level New York Center
06:12PM 40.8200 -77.1658 30° Northeast 273 314 17,000  Level New York Center
06:13PM 40.8850 -77.1172 29° Northeast 268 308 17,000  Level New York Center
06:14PM 40.9481 -77.0708 29° Northeast 258 297 17,000  Level New York Center
06:15PM 41.0111 -77.0217 30° Northeast 258 297 17,000  Level New York Center
06:16PM 41.0781 -76.9728 29° Northeast 258 297 17,000  Level New York Center
06:17PM 41.1411 -76.9233 31° Northeast 258 297 17,000  Level New York Center
06:18PM 41.2083 -76.8742 29° Northeast 258 297 17,000  Level New York Center
06:19PM 41.2711 -76.8247 31° Northeast 258 297 17,000  Level New York Center
06:20PM 41.3361 -76.7781 28° Northeast 258 297 17,000  Level New York Center
06:21PM 41.3989 -76.7283 31° Northeast 258 297 17,000  Level New York Center
06:22PM 41.4578 -76.6808 31° Northeast 258 297 17,000  Level New York Center
06:23PM 41.5203 -76.6339 29° Northeast 258 297 17,000 -60 Level New York Center
06:24PM 41.5897 -76.5789 31° Northeast 258 297 16,900 -600 Descending New York Center
06:25PM 41.6544 -76.5317 29° Northeast 263 303 15,900 -960 Descending New York Center
06:26PM 41.7194 -76.4817 30° Northeast 263 303 15,000 -960 Descending New York Center
06:27PM 41.7842 -76.4344 29° Northeast 263 303 14,000 -3,000 Descending New York Center
06:28PM 41.8544 -76.3569 39° Northeast 285 328 9,000 -2,160 Descending New York Center
06:29PM 41.9114 -76.2947 39° Northeast 285 328 9,700 -660 Climbing New York Center
06:30PM 41.9664 -76.2353 39° Northeast 264 304 7,700 -1,860 Descending New York Center
06:31PM 42.0169 -76.1750 42° Northeast 264 304 6,000 -1,440 Descending New York Center
06:32PM 42.0797 -76.1217 32° Northeast 264 304 4,900 -1,020 Descending New York Center
06:33PM 42.1403 -76.0733 31° Northeast 259 298 4,000 -420 Descending New York Center
06:34PM 42.1986 -76.0669 North 221 254 4,100 -480 Climbing New York Center
06:35PM 42.2372 -76.0419 26° Northeast 187 215 3,100 -960 Descending New York Center
06:36PM 42.2328 -76.0025 99° East 106 122 2,200 2,940 Descending New York Center
06:37PM 42.2575 -75.9622 50° Northeast 106 122 9,000 3,360 Climbing New York Center
06:38PM 42.2756 -75.9275 55° Northeast 106 122 9,000  Level New York Center
06:39PM 42.2917 -75.8950 56° Northeast 106 122 9,000  Level New York Center
06:41PM 42.2000 -75.9667 North  Level FlightAware Approximate
06:48PM 42.2084 -75.9796 North  Level Estimated
06:49PM 42.2084 -75.9796 North  Level Estimated
06:50PM 42.2084 -75.9796 North  Level Estimated
06:51PM 42.2084 -75.9796 North  Level Estimated
06:52PM 42.2084 -75.9796 North  Level Estimated
06:53PM 42.2084 -75.9796 North  Level Estimated
06:54PM 42.2084 -75.9796 North  Level Estimated
06:55PM 42.2084 -75.9796 North  Level Estimated
06:56PM 42.2084 -75.9796 North  Level Estimated
06:57PM 42.2084 -75.9796 North  Level Estimated